Time;durP1;ratioP1;P1;durP2;ratioP2;P2;SDS_P1;SDS_P2;PMS_P1;PMS_P2;Temp;Humidity;BMP_temperature;BMP_pressure;BME280_temperature;BME280_humidity;BME280_pressure;Samples;Min_cycle;Max_cycle;Signal;HPM_P1;HPM_P2
2023/09/11 00:00:18;;;;;;;4.03;2.20;;;;;;;16.48;64.42;94296.75;5082621;28;20020;-72
2023/09/11 00:02:43;;;;;;;9.60;2.70;;;;;;;16.46;64.67;94298.97;5082806;28;20327;-72
2023/09/11 00:05:09;;;;;;;8.85;3.28;;;;;;;16.39;64.83;94304.16;5082679;28;20027;-72
2023/09/11 00:07:34;;;;;;;8.80;2.13;;;;;;;16.23;64.72;94299.47;5082783;28;20027;-72
2023/09/11 00:09:59;;;;;;;6.75;2.65;;;;;;;16.09;65.27;94304.41;5082626;28;20047;-71
2023/09/11 00:12:25;;;;;;;7.38;2.13;;;;;;;16.01;65.46;94295.31;5082467;28;20056;-71
2023/09/11 00:14:50;;;;;;;7.35;2.80;;;;;;;16.01;65.51;94300.69;5082144;28;20024;-70
2023/09/11 00:17:16;;;;;;;7.63;2.60;;;;;;;15.92;65.76;94297.34;5081511;28;20028;-70
2023/09/11 00:19:41;;;;;;;6.68;2.78;;;;;;;15.79;66.26;94310.00;5082488;28;20032;-71
2023/09/11 00:22:06;;;;;;;5.85;3.13;;;;;;;15.69;66.86;94309.63;5064700;28;20024;-70
2023/09/11 00:24:32;;;;;;;6.00;2.40;;;;;;;15.67;66.70;94307.25;5082526;28;20032;-70
2023/09/11 00:26:57;;;;;;;6.93;2.97;;;;;;;15.62;66.66;94302.13;5082716;28;20025;-70
2023/09/11 00:29:23;;;;;;;9.27;2.70;;;;;;;15.54;67.20;94298.41;5082340;28;20020;-70
2023/09/11 00:31:48;;;;;;;10.80;3.28;;;;;;;15.52;67.18;94300.63;5082439;28;20059;-70
2023/09/11 00:34:13;;;;;;;10.43;4.97;;;;;;;15.43;67.25;94297.28;5082578;28;20027;-71
2023/09/11 00:36:39;;;;;;;7.97;2.67;;;;;;;15.32;67.74;94302.25;5081608;28;20055;-71
2023/09/11 00:39:04;;;;;;;7.85;2.85;;;;;;;15.38;68.47;94300.94;5081470;28;20499;-71
2023/09/11 00:41:30;;;;;;;6.57;2.10;;;;;;;15.33;68.47;94295.78;5080895;28;20090;-71
2023/09/11 00:43:55;;;;;;;12.23;2.60;;;;;;;15.22;68.66;94291.94;5081762;28;20067;-71
2023/09/11 00:46:21;;;;;;;6.45;2.90;;;;;;;15.24;69.01;94301.25;5082068;28;20301;-71
2023/09/11 00:48:51;;;;;;;6.70;2.85;;;;;;;15.13;69.40;94299.31;5082384;28;20097;-71
2023/09/11 00:51:16;;;;;;;8.10;2.72;;;;;;;15.18;69.55;94301.78;5082508;28;20223;-70
2023/09/11 00:53:42;;;;;;;17.33;3.05;;;;;;;15.17;69.32;94308.28;5082062;28;20020;-71
2023/09/11 00:56:08;;;;;;;10.27;3.58;;;;;;;15.18;69.09;94304.47;5082362;28;20028;-71
2023/09/11 00:58:34;;;;;;;7.00;2.67;;;;;;;15.13;69.08;94299.31;5082231;28;20214;-71
2023/09/11 01:01:00;;;;;;;5.65;2.65;;;;;;;15.02;69.36;94304.28;5082254;28;20062;-71
2023/09/11 01:03:25;;;;;;;10.32;3.65;;;;;;;15.04;69.94;94291.31;5082126;28;20059;-71
2023/09/11 01:05:51;;;;;;;10.57;3.97;;;;;;;14.97;69.75;94291.09;5085876;28;20105;-70
2023/09/11 01:08:16;;;;;;;9.52;2.75;;;;;;;14.90;70.06;94293.50;5067995;28;20099;-71
2023/09/11 01:10:42;;;;;;;11.63;2.80;;;;;;;14.92;70.01;94288.59;5085839;28;20086;-71
2023/09/11 01:13:07;;;;;;;5.57;2.90;;;;;;;14.87;70.08;94286.13;5085841;28;20307;-71
2023/09/11 01:15:59;;;;;;;10.82;3.40;;;;;;;14.74;70.68;94294.13;5085452;28;20021;-71
2023/09/11 01:18:38;;;;;;;22.70;5.47;;;;;;;14.75;70.82;94294.91;5085677;28;20029;-71
2023/09/11 01:21:44;;;;;;;6.53;3.15;;;;;;;14.66;71.20;94296.88;5085647;28;20028;-71
2023/09/11 01:24:16;;;;;;;8.27;2.88;;;;;;;14.66;71.38;94292.28;5085723;28;20206;-71
2023/09/11 01:27:26;;;;;;;5.30;2.80;;;;;;;14.65;71.47;94296.06;5085593;28;20260;-70
2023/09/11 01:29:53;;;;;;;10.10;3.00;;;;;;;14.66;71.05;94292.28;5073922;28;20044;-70
2023/09/11 01:32:21;;;;;;;9.13;2.90;;;;;;;14.46;71.53;94293.81;5085461;28;20025;-70
2023/09/11 01:34:46;;;;;;;7.82;2.60;;;;;;;14.42;71.88;94295.59;5085410;28;20033;-70
2023/09/11 01:37:12;;;;;;;8.50;2.97;;;;;;;14.42;71.96;94295.59;5085395;28;20028;-70
2023/09/11 01:39:37;;;;;;;10.52;3.22;;;;;;;14.38;72.14;94292.78;5085113;28;20029;-70
2023/09/11 01:42:09;;;;;;;6.43;3.33;;;;;;;14.44;72.12;94288.78;5085149;28;20055;-70
2023/09/11 01:44:49;;;;;;;5.45;3.05;;;;;;;14.45;72.05;94290.38;5085398;28;20040;-70
2023/09/11 01:47:20;;;;;;;13.68;2.95;;;;;;;14.36;72.42;94292.31;5085217;28;20025;-70
2023/09/11 01:49:47;;;;;;;10.40;3.33;;;;;;;14.40;72.33;94284.41;5084770;28;20024;-70
2023/09/11 01:52:13;;;;;;;6.15;3.10;;;;;;;14.39;72.26;94293.53;5084978;28;20364;-70
2023/09/11 01:54:39;;;;;;;8.68;3.00;;;;;;;14.34;72.60;94280.34;5084904;28;20275;-70
2023/09/11 01:57:05;;;;;;;5.82;2.63;;;;;;;14.34;72.42;94286.50;5085065;28;20024;-70
2023/09/11 01:59:32;;;;;;;7.03;2.78;;;;;;;14.36;72.61;94284.25;5084913;28;20040;-70
2023/09/11 02:01:57;;;;;;;7.60;3.60;;;;;;;14.31;72.78;94278.31;5084793;28;20032;-70
2023/09/11 02:04:23;;;;;;;6.78;2.78;;;;;;;14.36;72.64;94284.25;5084894;28;20066;-70
2023/09/11 02:06:48;;;;;;;5.20;2.80;;;;;;;14.30;72.78;94277.53;5084833;28;20028;-70
2023/09/11 02:09:13;;;;;;;6.57;2.90;;;;;;;14.24;72.88;94274.25;5084862;28;20062;-71
2023/09/11 02:11:39;;;;;;;9.75;2.92;;;;;;;14.22;72.93;94284.50;5084563;28;20346;-70
2023/09/11 02:14:04;;;;;;;9.52;2.97;;;;;;;14.18;73.21;94285.50;5084629;28;20051;-70
2023/09/11 02:16:30;;;;;;;14.48;2.78;;;;;;;14.19;73.29;94282.50;5083628;28;20114;-70
2023/09/11 02:18:55;;;;;;;15.20;3.53;;;;;;;14.16;73.38;94275.09;5084419;28;20051;-70
2023/09/11 02:21:21;;;;;;;10.13;2.85;;;;;;;14.10;73.52;94281.75;5084407;28;20035;-70
2023/09/11 02:23:46;;;;;;;7.65;2.95;;;;;;;14.06;73.49;94283.50;5084448;28;20024;-70
2023/09/11 02:26:11;;;;;;;6.10;2.88;;;;;;;14.03;73.68;94281.50;5084359;28;20333;-70
2023/09/11 02:28:37;;;;;;;8.00;3.40;;;;;;;13.97;73.73;94280.09;5084387;28;20020;-70
2023/09/11 02:31:02;;;;;;;6.45;3.17;;;;;;;13.92;73.84;94282.94;5084299;28;20032;-70
2023/09/11 02:33:28;;;;;;;11.15;3.05;;;;;;;13.91;74.05;94282.19;5084317;28;20028;-70
2023/09/11 02:35:55;;;;;;;7.03;3.42;;;;;;;13.91;73.94;94273.34;5084150;28;20095;-70
2023/09/11 02:38:21;;;;;;;9.63;3.00;;;;;;;13.88;74.06;94279.34;5083998;28;20457;-70
2023/09/11 02:40:47;;;;;;;5.90;2.85;;;;;;;13.79;74.41;94277.50;5084082;28;20029;-70
2023/09/11 02:43:12;;;;;;;8.55;2.80;;;;;;;13.82;74.44;94266.16;5084092;28;20024;-70
2023/09/11 02:45:37;;;;;;;11.73;2.92;;;;;;;13.76;74.58;94270.13;5083986;28;20051;-70
2023/09/11 02:48:03;;;;;;;5.72;2.85;;;;;;;13.73;74.78;94273.44;5084033;28;20024;-70
2023/09/11 02:50:28;;;;;;;7.03;3.03;;;;;;;13.73;75.03;94273.44;5083896;28;20066;-70
2023/09/11 02:52:54;;;;;;;10.10;3.20;;;;;;;13.74;75.09;94268.84;5083965;28;20024;-70
2023/09/11 02:55:19;;;;;;;8.10;3.42;;;;;;;13.71;75.09;94270.28;5083703;28;20051;-70
2023/09/11 02:57:44;;;;;;;6.50;2.72;;;;;;;13.64;75.30;94270.03;5083684;28;20024;-70
2023/09/11 03:00:10;;;;;;;4.88;2.65;;;;;;;13.56;75.64;94268.16;5083762;28;20027;-70
2023/09/11 03:02:36;;;;;;;5.22;2.70;;;;;;;13.52;75.91;94267.25;5083458;28;20048;-70
2023/09/11 03:05:04;;;;;;;13.45;3.00;;;;;;;13.54;75.96;94271.16;5083742;28;20021;-70
2023/09/11 03:07:29;;;;;;;7.00;2.55;;;;;;;13.50;75.99;94264.09;5083833;28;20027;-70
2023/09/11 03:09:54;;;;;;;6.40;3.22;;;;;;;13.54;76.11;94265.03;5083409;28;20020;-70
2023/09/11 03:12:20;;;;;;;6.20;2.72;;;;;;;13.53;75.93;94268.78;5083421;28;20082;-70
2023/09/11 03:14:45;;;;;;;4.85;2.65;;;;;;;13.51;76.04;94273.69;5083346;28;20327;-71
2023/09/11 03:17:13;;;;;;;11.52;2.85;;;;;;;13.44;76.27;94269.63;5083461;28;20146;-71
2023/09/11 03:19:39;;;;;;;10.65;3.03;;;;;;;13.40;76.43;94281.28;5083433;28;20035;-70
2023/09/11 03:22:04;;;;;;;9.57;3.28;;;;;;;13.41;76.48;94274.81;5083228;28;20025;-71
2023/09/11 03:24:30;;;;;;;6.03;2.47;;;;;;;13.39;76.41;94280.50;5065546;28;20032;-71
2023/09/11 03:26:55;;;;;;;7.53;2.38;;;;;;;13.31;76.82;94273.28;5082947;28;20024;-70
2023/09/11 03:29:20;;;;;;;5.53;2.58;;;;;;;13.19;77.24;94276.59;5083122;28;20024;-71
2023/09/11 03:31:46;;;;;;;5.68;2.38;;;;;;;13.24;77.26;94275.63;5083094;28;20215;-71
2023/09/11 03:34:12;;;;;;;8.68;2.47;;;;;;;13.20;77.55;94272.03;5083356;28;20025;-70
2023/09/11 03:36:37;;;;;;;8.73;3.08;;;;;;;13.22;77.41;94275.16;5083054;28;20027;-71
2023/09/11 03:39:02;;;;;;;8.90;2.40;;;;;;;13.30;77.13;94278.97;5082999;28;20078;-71
2023/09/11 03:41:29;;;;;;;10.27;3.05;;;;;;;13.24;77.24;94275.63;5083093;28;20032;-71
2023/09/11 03:43:54;;;;;;;9.05;3.35;;;;;;;13.23;77.35;94266.03;5083217;28;20219;-71
2023/09/11 03:46:20;;;;;;;8.40;2.80;;;;;;;13.24;77.29;94268.38;5082847;28;20087;-71
2023/09/11 03:48:45;;;;;;;8.05;2.75;;;;;;;13.21;77.34;94268.25;5082896;28;20096;-70
2023/09/11 03:51:10;;;;;;;4.55;2.28;;;;;;;13.27;77.21;94266.97;5082952;28;20027;-70
2023/09/11 03:53:42;;;;;;;12.95;2.80;;;;;;;13.19;77.31;94273.13;5082850;28;20115;-70
2023/09/11 03:56:09;;;;;;;5.80;2.90;;;;;;;13.18;77.35;94275.00;5082868;28;20036;-70
2023/09/11 03:58:34;;;;;;;8.05;2.95;;;;;;;13.10;77.38;94278.50;5082612;28;20024;-70
2023/09/11 04:01:00;;;;;;;7.78;2.42;;;;;;;13.13;77.72;94277.09;5082547;28;20259;-70
2023/09/11 04:03:25;;;;;;;8.93;2.80;;;;;;;13.18;77.43;94280.38;5064910;28;20016;-70
2023/09/11 04:05:51;;;;;;;6.03;2.85;;;;;;;13.18;77.56;94275.00;5082523;28;20257;-71
2023/09/11 04:08:16;;;;;;;11.98;2.30;;;;;;;13.21;77.12;94284.31;5082741;28;20060;-70
2023/09/11 04:10:42;;;;;;;9.65;2.75;;;;;;;13.22;76.98;94285.88;5082555;28;20115;-70
2023/09/11 04:13:07;;;;;;;6.00;2.25;;;;;;;13.15;77.24;94285.59;5082611;28;20322;-70
2023/09/11 04:15:32;;;;;;;6.03;2.42;;;;;;;13.10;77.63;94291.88;5082423;28;20027;-70
2023/09/11 04:17:58;;;;;;;7.55;2.63;;;;;;;13.15;77.54;94282.91;5082527;28;20285;-70
2023/09/11 04:20:23;;;;;;;8.85;2.47;;;;;;;13.11;77.54;94292.66;5082692;28;20219;-70
2023/09/11 04:22:49;;;;;;;5.82;2.60;;;;;;;13.16;77.58;94287.16;5064733;28;20052;-71
2023/09/11 04:25:14;;;;;;;7.95;2.38;;;;;;;13.20;77.33;94283.50;5082559;28;20033;-71
2023/09/11 04:27:40;;;;;;;8.05;2.28;;;;;;;13.22;77.44;94292.00;5082296;28;20196;-71
2023/09/11 04:30:06;;;;;;;8.15;3.40;;;;;;;13.29;77.28;94280.03;5082444;28;20017;-70
2023/09/11 04:32:32;;;;;;;9.65;2.92;;;;;;;13.30;77.29;94287.78;5082472;28;20299;-71
2023/09/11 04:34:57;;;;;;;16.08;3.00;;;;;;;13.33;77.37;94287.16;5082562;28;20020;-71
2023/09/11 04:37:22;;;;;;;8.10;2.55;;;;;;;13.39;77.22;94291.22;5082276;28;20024;-71
2023/09/11 04:39:48;;;;;;;9.75;3.75;;;;;;;13.46;77.29;94289.94;5084734;28;20277;-71
2023/09/11 04:42:13;;;;;;;19.75;5.32;;;;;;;13.54;76.72;94297.94;5086217;28;20024;-71
2023/09/11 04:44:39;;;;;;;10.88;2.55;;;;;;;13.62;76.46;94289.09;5086369;28;20088;-71
2023/09/11 04:47:06;;;;;;;14.52;2.42;;;;;;;13.67;76.30;94290.78;5086110;28;20223;-71
2023/09/11 04:49:31;;;;;;;12.13;3.05;;;;;;;13.72;76.40;94301.34;5086208;28;20024;-71
2023/09/11 04:51:57;;;;;;;14.27;2.97;;;;;;;13.79;76.14;94293.56;5086184;28;20176;-70
2023/09/11 04:54:22;;;;;;;7.63;2.80;;;;;;;13.84;75.65;94298.75;5086002;28;20083;-69
2023/09/11 04:56:47;;;;;;;12.68;3.03;;;;;;;13.88;75.51;94296.22;5085847;28;20388;-69
2023/09/11 04:59:13;;;;;;;5.63;2.67;;;;;;;13.87;75.77;94299.22;5086094;28;20051;-70
2023/09/11 05:01:38;;;;;;;6.70;2.80;;;;;;;13.85;76.14;94302.22;5085887;28;20111;-70
2023/09/11 05:04:05;;;;;;;5.88;2.85;;;;;;;13.91;76.35;94292.13;5085863;28;20231;-70
2023/09/11 05:06:30;;;;;;;12.60;3.58;;;;;;;13.98;75.79;94295.06;5085969;28;20315;-70
2023/09/11 05:08:56;;;;;;;6.32;2.67;;;;;;;14.07;75.44;94297.72;5085522;28;20111;-70
2023/09/11 05:11:22;;;;;;;6.35;2.72;;;;;;;14.10;75.17;94297.81;5085715;28;20278;-70
2023/09/11 05:13:47;;;;;;;7.78;2.58;;;;;;;14.20;74.98;94296.69;5085632;28;20047;-70
2023/09/11 05:16:12;;;;;;;5.30;2.60;;;;;;;14.21;75.04;94290.22;5085680;28;20016;-70
2023/09/11 05:18:38;;;;;;;6.68;2.30;;;;;;;14.30;74.42;94284.78;5085527;28;20021;-70
2023/09/11 05:21:03;;;;;;;6.68;2.58;;;;;;;14.36;74.05;94288.84;5085579;28;20311;-70
2023/09/11 05:23:28;;;;;;;6.50;2.65;;;;;;;14.44;73.56;94283.41;5085614;28;20028;-71
2023/09/11 05:25:54;;;;;;;7.10;2.22;;;;;;;14.49;73.11;94282.47;5085552;28;20311;-71
2023/09/11 05:28:19;;;;;;;9.20;2.30;;;;;;;14.56;73.39;94281.97;5085489;28;20080;-72
2023/09/11 05:30:45;;;;;;;14.43;3.08;;;;;;;14.67;73.26;94277.75;5085392;28;20028;-72
2023/09/11 05:33:10;;;;;;;11.35;3.20;;;;;;;14.64;72.62;94283.78;5085202;28;20024;-72
2023/09/11 05:35:36;;;;;;;13.45;2.90;;;;;;;14.66;72.64;94272.75;5085192;28;20083;-72
2023/09/11 05:38:05;;;;;;;14.10;3.30;;;;;;;14.69;73.00;94280.13;5085123;28;20024;-72
2023/09/11 05:40:30;;;;;;;11.10;3.53;;;;;;;14.73;72.98;94286.41;5085370;28;20032;-72
2023/09/11 05:42:55;;;;;;;10.38;3.42;;;;;;;14.77;72.88;94282.72;5085372;28;20055;-72
2023/09/11 05:45:21;;;;;;;10.30;2.92;;;;;;;14.83;71.97;94280.63;5084748;28;20026;-72
2023/09/11 05:47:46;;;;;;;19.08;3.45;;;;;;;14.88;71.61;94288.47;5084897;28;20016;-72
2023/09/11 05:50:14;;;;;;;8.77;3.13;;;;;;;14.92;71.97;94283.22;5084653;28;20020;-72
2023/09/11 05:52:40;;;;;;;12.07;3.55;;;;;;;14.96;71.03;94279.56;5084956;28;20024;-72
2023/09/11 05:55:05;;;;;;;10.20;2.83;;;;;;;15.01;71.39;94292.78;5084897;28;20047;-72
2023/09/11 05:57:31;;;;;;;8.63;2.80;;;;;;;15.07;70.72;94292.59;5084979;28;20155;-72
2023/09/11 05:59:56;;;;;;;12.25;2.13;;;;;;;15.11;70.78;94286.22;5084843;28;20198;-72
2023/09/11 06:02:22;;;;;;;9.38;2.45;;;;;;;15.18;70.09;94282.97;5084829;28;20047;-72
2023/09/11 06:04:47;;;;;;;10.13;2.75;;;;;;;15.23;69.86;94283.56;5084815;28;20095;-72
2023/09/11 06:07:13;;;;;;;9.15;3.35;;;;;;;15.22;70.01;94282.00;5084681;28;20021;-72
2023/09/11 06:09:38;;;;;;;5.43;2.65;;;;;;;15.25;69.81;94285.91;5084649;28;20074;-70
2023/09/11 06:12:04;;;;;;;8.98;2.35;;;;;;;15.33;69.56;94286.97;5084329;28;20052;-70
2023/09/11 06:14:29;;;;;;;12.40;2.70;;;;;;;15.35;69.28;94296.25;5084675;28;20372;-70
2023/09/11 06:16:54;;;;;;;14.02;3.30;;;;;;;15.37;68.98;94285.94;5084442;28;20261;-71
2023/09/11 06:19:20;;;;;;;6.05;3.03;;;;;;;15.40;68.89;94287.97;5084366;28;20228;-71
2023/09/11 06:21:45;;;;;;;12.60;2.72;;;;;;;15.43;68.32;94295.38;5066371;28;20073;-71
2023/09/11 06:24:11;;;;;;;12.40;2.55;;;;;;;15.42;68.54;94296.47;5084386;28;20119;-70
2023/09/11 06:26:37;;;;;;;10.68;3.03;;;;;;;15.49;68.43;94311.25;5084403;28;20299;-69
2023/09/11 06:29:02;;;;;;;12.05;3.05;;;;;;;15.61;68.62;94303.22;5084103;28;20024;-69
2023/09/11 06:31:29;;;;;;;15.88;3.35;;;;;;;15.73;68.48;94303.25;5084190;28;20365;-69
2023/09/11 06:33:54;;;;;;;10.52;2.88;;;;;;;15.90;68.00;94299.59;5084020;28;20073;-69
2023/09/11 06:36:20;;;;;;;12.93;4.28;;;;;;;15.98;67.56;94303.31;5084238;28;20494;-69
2023/09/11 06:38:45;;;;;;;8.38;2.75;;;;;;;16.05;66.92;94301.59;5084170;28;20062;-69
2023/09/11 06:41:10;;;;;;;9.85;3.40;;;;;;;16.17;66.51;94303.50;5084108;28;20025;-69
2023/09/11 06:43:37;;;;;;;10.23;2.75;;;;;;;16.19;65.71;94298.56;5083743;28;20261;-70
2023/09/11 06:46:03;;;;;;;12.77;2.97;;;;;;;16.29;65.56;94305.41;5084038;28;20028;-70
2023/09/11 06:48:28;;;;;;;10.43;3.38;;;;;;;16.35;65.58;94303.28;5084420;28;20054;-70
2023/09/11 06:50:54;;;;;;;19.38;5.35;;;;;;;16.40;65.28;94308.41;5083649;28;20084;-70
2023/09/11 06:53:20;;;;;;;11.45;4.55;;;;;;;16.48;65.30;94312.09;5083723;28;20086;-71
2023/09/11 06:55:48;;;;;;;13.40;4.35;;;;;;;16.57;65.18;94305.47;5083662;28;20078;-71
2023/09/11 06:58:14;;;;;;;15.05;4.40;;;;;;;16.73;65.13;94308.25;5083813;28;20020;-71
2023/09/11 07:00:40;;;;;;;14.68;3.20;;;;;;;16.89;64.77;94302.16;5083421;28;20021;-70
2023/09/11 07:03:06;;;;;;;18.00;3.35;;;;;;;16.96;64.01;94313.91;5082938;28;20024;-70
2023/09/11 07:05:31;;;;;;;19.02;3.33;;;;;;;17.10;63.73;94304.69;5083562;28;20055;-70
2023/09/11 07:07:57;;;;;;;48.55;24.70;;;;;;;17.25;63.70;94302.00;5083577;28;20024;-70
2023/09/11 07:10:23;;;;;;;13.77;6.95;;;;;;;17.34;62.31;94301.06;5082972;28;20325;-70
2023/09/11 07:12:49;;;;;;;17.60;3.55;;;;;;;17.45;62.17;94302.13;5083472;28;20058;-70
2023/09/11 07:15:17;;;;;;;11.90;3.40;;;;;;;17.61;61.67;94305.63;5083397;28;20103;-70
2023/09/11 07:17:44;;;;;;;12.60;3.67;;;;;;;17.76;61.26;94295.22;5083115;28;20249;-70
2023/09/11 07:20:11;;;;;;;14.23;4.13;;;;;;;17.87;60.52;94292.81;5083197;28;20020;-70
2023/09/11 07:22:36;;;;;;;12.82;3.40;;;;;;;17.96;59.59;94288.81;5083125;28;20024;-70
2023/09/11 07:25:03;;;;;;;11.10;3.17;;;;;;;17.91;59.71;94299.06;5083165;28;20016;-70
2023/09/11 07:27:33;;;;;;;15.40;3.47;;;;;;;18.03;59.40;94297.06;5083248;28;20044;-70
2023/09/11 07:29:59;;;;;;;14.98;3.70;;;;;;;18.23;58.24;94289.81;5083239;28;20212;-70
2023/09/11 07:32:25;;;;;;;11.65;4.15;;;;;;;18.33;58.45;94293.09;5083003;28;20024;-73
2023/09/11 07:34:51;;;;;;;12.13;2.85;;;;;;;18.41;58.31;94286.72;5083027;28;20020;-75
2023/09/11 07:37:16;;;;;;;11.82;3.67;;;;;;;18.52;58.43;94289.66;5082853;28;20021;-72
2023/09/11 07:39:42;;;;;;;13.40;3.42;;;;;;;18.70;58.72;94287.34;5082812;28;20025;-80
2023/09/11 07:42:07;;;;;;;19.13;3.88;;;;;;;18.82;58.10;94292.63;5083055;28;20083;-75
2023/09/11 07:44:33;;;;;;;15.80;5.55;;;;;;;18.93;58.00;94284.75;5082879;28;20020;-76
2023/09/11 07:46:58;;;;;;;17.50;3.92;;;;;;;19.03;57.16;94292.28;5082973;28;20042;-80
2023/09/11 07:49:23;;;;;;;21.52;4.10;;;;;;;19.16;56.92;94291.00;5082858;28;20044;-81
2023/09/11 07:51:49;;;;;;;27.60;4.13;;;;;;;19.30;56.28;94290.50;5082714;28;20183;-78
2023/09/11 07:54:14;;;;;;;20.45;4.15;;;;;;;19.43;55.69;94286.47;5082871;28;20206;-76
2023/09/11 07:56:40;;;;;;;11.25;3.22;;;;;;;19.56;55.98;94286.31;5082933;28;20051;-76
2023/09/11 07:59:05;;;;;;;13.32;3.25;;;;;;;19.63;55.29;94281.81;5082830;28;20044;-79
2023/09/11 08:01:31;;;;;;;7.25;2.50;;;;;;;19.72;53.57;94287.03;5082911;28;20092;-77
2023/09/11 08:03:56;;;;;;;14.77;2.72;;;;;;;19.77;53.47;94280.53;5082640;28;20048;-76
2023/09/11 08:06:25;;;;;;;10.15;3.15;;;;;;;19.89;52.84;94282.28;5082648;28;20088;-75
2023/09/11 08:08:52;;;;;;;17.23;3.33;;;;;;;20.05;52.03;94282.94;5082766;28;20032;-77
2023/09/11 08:11:19;;;;;;;20.42;3.67;;;;;;;20.18;50.99;94281.56;5064619;28;20044;-77
2023/09/11 08:13:46;;;;;;;13.48;3.30;;;;;;;20.34;50.39;94280.66;5085110;28;20065;-77
2023/09/11 08:16:17;;;;;;;12.88;4.00;;;;;;;20.48;50.01;94274.66;5086811;28;20341;-76
2023/09/11 08:18:43;;;;;;;10.05;3.15;;;;;;;20.57;48.43;94284.06;5085596;28;20095;-74
2023/09/11 08:21:12;;;;;;;8.68;2.78;;;;;;;20.66;48.00;94272.19;5084772;28;20023;-74
2023/09/11 08:23:37;;;;;;;15.88;4.63;;;;;;;20.71;48.08;94263.78;5085532;28;20028;-75
2023/09/11 08:26:03;;;;;;;7.13;3.75;;;;;;;20.80;48.70;94270.47;5084451;28;20242;-75
2023/09/11 08:28:29;;;;;;;13.77;3.47;;;;;;;20.94;47.06;94269.06;5084935;28;20021;-74
2023/09/11 08:30:54;;;;;;;12.05;3.25;;;;;;;21.02;46.04;94268.81;5084784;28;20195;-75
2023/09/11 08:33:21;;;;;;;9.35;3.10;;;;;;;21.15;46.15;94263.13;5084551;28;20027;-76
2023/09/11 08:35:49;;;;;;;7.75;2.70;;;;;;;21.22;45.69;94263.97;5084694;28;20023;-75
2023/09/11 08:38:16;;;;;;;14.85;3.28;;;;;;;21.33;45.82;94257.88;5084565;28;20098;-75
2023/09/11 08:40:42;;;;;;;10.02;2.80;;;;;;;21.32;44.95;94259.81;5086278;28;20040;-76
2023/09/11 08:43:08;;;;;;;9.20;3.97;;;;;;;21.48;45.57;94258.84;5086125;28;20039;-76
2023/09/11 08:45:33;;;;;;;17.33;3.53;;;;;;;21.57;45.88;94257.38;5086280;28;20020;-76
2023/09/11 08:47:59;;;;;;;14.20;3.30;;;;;;;21.61;44.95;94252.00;5086109;28;20261;-75
2023/09/11 08:50:30;;;;;;;14.88;3.08;;;;;;;21.70;44.98;94263.34;5086141;28;20024;-76
2023/09/11 08:52:58;;;;;;;12.38;2.97;;;;;;;21.81;44.93;94258.00;5085873;28;20024;-75
2023/09/11 08:55:25;;;;;;;7.65;3.13;;;;;;;21.92;43.98;94253.44;5085813;28;20036;-76
2023/09/11 08:57:51;;;;;;;9.30;2.95;;;;;;;21.98;43.87;94254.66;5085702;28;20058;-75
2023/09/11 09:00:17;;;;;;;7.28;2.80;;;;;;;22.05;43.54;94253.91;5085738;28;20319;-76
2023/09/11 09:02:43;;;;;;;11.07;3.40;;;;;;;22.13;43.91;94252.81;5085882;28;20343;-76
2023/09/11 09:05:10;;;;;;;14.07;3.38;;;;;;;22.22;43.44;94253.25;5085759;28;20049;-76
2023/09/11 09:07:38;;;;;;;9.63;2.70;;;;;;;22.23;42.88;94252.13;5085747;28;20037;-76
2023/09/11 09:10:05;;;;;;;8.90;2.90;;;;;;;22.35;42.26;94244.84;5085845;28;20051;-76
2023/09/11 09:12:31;;;;;;;10.63;3.60;;;;;;;22.42;41.36;94250.31;5085631;28;20039;-75
2023/09/11 09:14:57;;;;;;;13.98;3.00;;;;;;;22.47;42.10;94239.09;5068080;28;20020;-75
2023/09/11 09:17:23;;;;;;;8.90;2.85;;;;;;;22.59;41.62;94241.50;5085443;28;20160;-77
2023/09/11 09:19:48;;;;;;;7.28;2.50;;;;;;;22.62;41.18;94235.28;5085501;28;20057;-75
2023/09/11 09:22:14;;;;;;;6.97;2.90;;;;;;;22.73;40.35;94242.72;5067591;28;20066;-77
2023/09/11 09:24:51;;;;;;;8.52;2.72;;;;;;;22.79;41.01;94241.19;5066852;28;20030;-77
2023/09/11 09:27:17;;;;;;;12.00;3.38;;;;;;;22.85;40.43;94239.66;5085186;28;20095;-75
2023/09/11 09:29:42;;;;;;;10.85;2.72;;;;;;;22.80;39.67;94238.09;5067528;28;20204;-78
2023/09/11 09:32:09;;;;;;;6.40;2.60;;;;;;;22.89;39.46;94232.31;5085341;28;20091;-78
2023/09/11 09:34:37;;;;;;;7.50;2.60;;;;;;;22.78;39.60;94234.22;5085364;28;20020;-78
2023/09/11 09:37:02;;;;;;;8.57;3.17;;;;;;;22.66;40.04;94229.88;5085166;28;20024;-79
2023/09/11 09:39:29;;;;;;;8.63;2.92;;;;;;;22.63;40.17;94226.00;5084198;28;20029;-79
2023/09/11 09:41:57;;;;;;;6.40;2.33;;;;;;;22.80;40.41;94223.75;5067363;28;20028;-78
2023/09/11 09:44:29;;;;;;;9.73;2.80;;;;;;;22.95;39.96;94216.41;5085054;28;20028;-83
2023/09/11 09:46:55;;;;;;;12.57;2.72;;;;;;;23.02;39.71;94219.97;5067186;28;20020;-83
2023/09/11 09:49:22;;;;;;;13.68;2.67;;;;;;;23.12;40.31;94212.22;5085088;28;20464;-76
2023/09/11 09:51:47;;;;;;;16.65;3.05;;;;;;;23.22;39.26;94206.03;5084951;28;20017;-76
2023/09/11 09:54:13;;;;;;;7.22;2.95;;;;;;;23.28;39.40;94212.63;5084762;28;20130;-76
2023/09/11 09:56:39;;;;;;;6.57;2.45;;;;;;;23.25;38.46;94204.50;5084810;28;20202;-76
2023/09/11 09:59:05;;;;;;;11.60;2.38;;;;;;;23.34;37.99;94202.16;5084728;28;20070;-76
2023/09/11 10:01:30;;;;;;;4.70;2.80;;;;;;;23.35;37.49;94201.78;5084777;28;20298;-76
2023/09/11 10:03:56;;;;;;;6.25;3.28;;;;;;;23.40;37.72;94193.22;5085153;28;20044;-76
2023/09/11 10:06:23;;;;;;;14.32;2.58;;;;;;;23.49;37.74;94189.34;5084750;28;20349;-76
2023/09/11 10:09:09;;;;;;;8.70;2.78;;;;;;;23.59;39.98;94191.31;5084527;28;20250;-76
2023/09/11 10:11:36;;;;;;;11.23;2.75;;;;;;;23.72;38.65;94192.47;5084548;28;20073;-76
2023/09/11 10:14:03;;;;;;;4.55;2.30;;;;;;;23.73;37.66;94194.06;5084572;28;20045;-76
2023/09/11 10:16:30;;;;;;;8.05;2.47;;;;;;;23.77;38.31;94183.97;5066771;28;20200;-77
2023/09/11 10:18:57;;;;;;;5.57;2.25;;;;;;;23.88;37.08;94185.91;5084388;28;20036;-77
2023/09/11 10:21:23;;;;;;;6.13;2.42;;;;;;;23.92;37.50;94186.69;5084379;28;20225;-76
2023/09/11 10:23:49;;;;;;;15.65;3.08;;;;;;;24.00;39.88;94183.56;5084475;28;20032;-76
2023/09/11 10:26:25;;;;;;;8.85;3.35;;;;;;;24.10;40.72;94175.75;5083873;28;20238;-77
2023/09/11 10:29:00;;;;;;;5.03;2.47;;;;;;;24.22;38.18;94175.34;5084189;28;20207;-76
2023/09/11 10:31:35;;;;;;;9.65;2.80;;;;;;;24.33;38.74;94173.38;5084043;28;20016;-76
2023/09/11 10:34:02;;;;;;;10.77;3.13;;;;;;;24.39;35.90;94168.31;5066385;28;20085;-76
2023/09/11 10:36:33;;;;;;;8.50;2.88;;;;;;;24.39;36.07;94168.31;5083124;28;20032;-76
2023/09/11 10:39:00;;;;;;;13.25;3.13;;;;;;;24.34;35.84;94165.97;5083992;28;20028;-76
2023/09/11 10:41:26;;;;;;;12.75;2.65;;;;;;;24.33;35.86;94170.66;5083778;28;20091;-76
2023/09/11 10:43:52;;;;;;;12.07;2.92;;;;;;;24.42;34.80;94162.06;5084002;28;20227;-76
2023/09/11 10:46:31;;;;;;;10.90;3.33;;;;;;;24.53;35.81;94167.53;5083891;28;20020;-76
2023/09/11 10:48:58;;;;;;;11.63;3.67;;;;;;;24.63;37.41;94158.53;5083837;28;20176;-77
2023/09/11 10:51:24;;;;;;;7.82;3.05;;;;;;;24.75;37.13;94158.09;5083870;28;20020;-76
2023/09/11 10:53:50;;;;;;;6.57;2.80;;;;;;;24.85;34.47;94145.56;5083677;28;20024;-76
2023/09/11 10:56:16;;;;;;;10.80;2.92;;;;;;;24.93;36.10;94152.53;5083525;28;20070;-76
2023/09/11 10:58:42;;;;;;;19.65;3.20;;;;;;;25.02;35.56;94150.16;5083630;28;20032;-76
2023/09/11 11:01:07;;;;;;;6.65;1.85;;;;;;;25.04;36.01;94144.31;5083864;28;20032;-86
2023/09/11 11:03:34;;;;;;;10.13;2.90;;;;;;;25.11;35.35;94140.75;5082932;28;20087;-90
2023/09/11 11:06:05;;;;;;;9.35;2.67;;;;;;;25.23;34.49;94140.31;5066019;28;20081;-86
2023/09/11 11:08:37;;;;;;;6.23;2.27;;;;;;;25.31;34.75;94139.09;5084004;28;20231;-87
2023/09/11 11:11:03;;;;;;;11.45;3.00;;;;;;;25.20;33.37;94130.19;5066266;28;20350;-87
2023/09/11 11:13:29;;;;;;;7.05;2.20;;;;;;;25.10;32.68;94136.47;5066304;28;20073;-87
2023/09/11 11:16:21;;;;;;;10.50;2.30;;;;;;;25.23;33.61;94137.56;5083342;28;20017;-87
2023/09/11 11:18:46;;;;;;;11.70;2.47;;;;;;;25.25;32.27;94140.69;5071850;28;20323;-85
2023/09/11 11:21:14;;;;;;;11.00;2.83;;;;;;;25.31;31.85;94133.63;5083633;28;20027;-84
2023/09/11 11:23:55;;;;;;;10.48;2.42;;;;;;;25.34;33.31;94126.59;5065556;28;20032;-84
2023/09/11 11:26:24;;;;;;;9.70;2.63;;;;;;;25.51;33.76;94131.16;5084010;28;20095;-89